Observations for BELFAST ALDERGROVE, United Kingdom (EGAA)

EGAA 140820Z 23009KT 9999 BKN009 16/15 Q1012
EGAA 140750Z 22008KT 9999 SCT007 BKN010 15/14 Q1012 
EGAA 140720Z 21006KT 180V240 9999 SCT004 SCT007 BKN015 15/14 Q1012  
EGAA 140650Z 22006KT 8000 -RADZ BKN005 BKN028 15/15 Q1012   
EGAA 140620Z 22006KT 190V260 7000 -RADZ SCT005 BKN034 15/14 Q1012   
EGAA 140550Z 23007KT 9999 -DZ FEW010 SCT018 BKN043 15/14 Q1012  
EGAA 140450Z 23008KT 9999 BKN005 BKN009 15/14 Q1012 
EGAA 140420Z 22008KT 9999 BKN005 BKN008 15/14 Q1012 
EGAA 140350Z 24007KT 9999 BKN006 15/14 Q1012
EGAA 140320Z AUTO 22006KT 9999 BKN005/// 14/14 Q1012
EGAA 140250Z AUTO 20005KT 9999 FEW000/// BKN006/// OVC009/// 14/13 Q1012
EGAA 140220Z AUTO 19004KT 9999 SCT009/// OVC014/// 14/13 Q1012  
EGAA 140150Z 20003KT 9999 BKN012 BKN017 14/13 Q1012 
EGAA 140120Z 21005KT 9999 BKN009 BKN014 14/13 Q1012 
EGAA 140050Z 22006KT 9999 BKN010 BKN014 15/13 Q1012 
EGAA 140020Z 25005KT 9999 BKN012 OVC026 15/13 Q1012 
EGAA 132350Z 24006KT 9999 BKN013 BKN024 OVC031 14/13 Q1012  
EGAA 132320Z 23005KT 6000 -RA FEW013 SCT018 BKN025 14/13 Q1012  
EGAA 132250Z 26007KT 9999 BKN020 15/12 Q1012
EGAA 132220Z 26009KT 9999 BKN018 BKN023 OVC041 15/12 Q1012  
EGAA 132150Z 26009KT 9999 BKN024 15/12 Q1012
EGAA 132050Z 26008KT CAVOK 15/12 Q1011  
EGAA 132020Z 25005KT 9999 FEW018 SCT040 15/13 Q1011 
EGAA 131950Z 23006KT 9999 SCT018 16/14 Q1011
EGAA 131920Z 23004KT 9999 FEW020 BKN039 16/13 Q1011 
EGAA 131850Z 24004KT 9999 SCT021 BKN039 17/14 Q1011 
EGAA 131820Z 26006KT 9999 FEW018 SCT024 BKN032 17/13 Q1011  
EGAA 131750Z 26007KT 9999 SCT023 17/13 Q1011
EGAA 131720Z 25007KT 9999 BKN023 16/13 Q1010
EGAA 131650Z 28006KT 9999 BKN029 17/13 Q1010
EGAA 131620Z 27007KT 9999 BKN026 17/13 Q1010
EGAA 131550Z 29005KT 9999 BKN024 17/13 Q1010
EGAA 131520Z 28007KT 9999 BKN027 17/13 Q1010
EGAA 131450Z 28007KT 9999 SCT021 BKN026 17/12 Q1010 
EGAA 131420Z 27008KT 9999 BKN025 17/13 Q1010
EGAA 131350Z 27009KT 9999 BKN026 17/13 Q1010
EGAA 131320Z 29007KT 9999 FEW019 BKN027 17/13 Q1010 
EGAA 131250Z 27010KT 9999 BKN027 17/13 Q1010
EGAA 131220Z 28008KT 9999 FEW021 BKN026 17/12 Q1010 
EGAA 131150Z 29009KT 9999 FEW020 BKN027 17/12 Q1009 
EGAA 131120Z 29008KT 9999 BKN024 17/12 Q1009
EGAA 131050Z 28009KT 9999 BKN020 17/12 Q1009
EGAA 131020Z 29007KT 260V340 9999 SCT019 BKN023 17/12 Q1009 
EGAA 130950Z 32007KT 290V360 9999 SCT018 BKN023 16/13 Q1009 
EGAA 130850Z 30007KT 9999 BKN011 15/13 Q1009
EGAA 130820Z 30008KT 9999 BKN009 BKN013 14/13 Q1009 
EGAA 130750Z 31006KT 9999 SCT007 BKN011 14/13 Q1009